createdAt,value
2018-09-23T00:01:19.466Z,4.80
2018-09-23T00:03:48.422Z,6.47
2018-09-23T00:06:17.605Z,5.50
2018-09-23T00:08:46.655Z,5.30
2018-09-23T00:11:15.686Z,5.80
2018-09-23T00:13:44.729Z,4.60
2018-09-23T00:16:13.682Z,5.87
2018-09-23T00:18:42.660Z,5.22
2018-09-23T00:21:11.835Z,5.05
2018-09-23T00:23:40.711Z,5.25
2018-09-23T00:26:09.700Z,5.50
2018-09-23T00:28:38.775Z,6.22
2018-09-23T00:31:07.825Z,4.72
2018-09-23T00:33:36.818Z,6.53
2018-09-23T00:36:05.826Z,4.72
2018-09-23T00:38:34.804Z,4.87
2018-09-23T00:41:03.907Z,4.45
2018-09-23T00:43:32.915Z,4.92
2018-09-23T00:46:01.994Z,4.45
2018-09-23T00:48:31.130Z,5.25
2018-09-23T00:51:00.243Z,5.80
2018-09-23T00:53:29.270Z,4.75
2018-09-23T00:55:58.241Z,5.55
2018-09-23T00:58:27.290Z,4.47
2018-09-23T01:00:56.257Z,6.05
2018-09-23T01:03:25.286Z,5.60
2018-09-23T01:05:54.294Z,5.40
2018-09-23T01:08:23.517Z,5.03
2018-09-23T01:10:52.506Z,5.60
2018-09-23T01:13:21.617Z,4.53
2018-09-23T01:15:50.738Z,4.35
2018-09-23T01:18:19.750Z,5.70
2018-09-23T01:20:48.625Z,4.47
2018-09-23T01:23:17.662Z,7.10
2018-09-23T01:25:46.838Z,4.95
2018-09-23T01:28:15.993Z,5.72
2018-09-23T01:30:45.026Z,5.35
2018-09-23T01:33:13.977Z,4.83
2018-09-23T01:35:42.979Z,4.03
2018-09-23T01:38:11.946Z,5.67
2018-09-23T01:40:40.977Z,5.10
2018-09-23T01:43:09.962Z,5.22
2018-09-23T01:45:38.846Z,5.30
2018-09-23T01:48:07.674Z,5.10
2018-09-23T01:50:36.590Z,5.87
2018-09-23T01:53:05.678Z,5.10
2018-09-23T01:55:34.706Z,4.62
2018-09-23T01:58:03.594Z,5.80
2018-09-23T02:00:32.631Z,4.67
2018-09-23T02:03:01.733Z,5.92
2018-09-23T02:05:30.743Z,5.47
2018-09-23T02:07:59.710Z,4.70
2018-09-23T02:10:28.747Z,4.50
2018-09-23T02:12:57.869Z,4.58
2018-09-23T02:15:27.157Z,4.85
2018-09-23T02:17:56.003Z,5.78
2018-09-23T02:20:24.918Z,5.78
2018-09-23T02:22:54.102Z,5.67
2018-09-23T02:25:23.090Z,5.50
2018-09-23T02:27:52.083Z,6.03
2018-09-23T02:30:21.146Z,5.67
2018-09-23T02:32:50.182Z,5.53
2018-09-23T02:35:21.443Z,4.90
2018-09-23T02:37:50.909Z,5.77
2018-09-23T02:40:19.898Z,4.40
2018-09-23T02:42:48.961Z,5.45
2018-09-23T02:45:18.047Z,5.08
2018-09-23T02:47:47.086Z,4.40
2018-09-23T02:50:16.254Z,4.95
2018-09-23T02:52:45.174Z,4.85
2018-09-23T02:55:14.197Z,4.33
2018-09-23T02:57:43.218Z,5.35
2018-09-23T03:00:12.184Z,5.50
2018-09-23T03:02:41.250Z,5.25
2018-09-23T03:05:10.193Z,5.27
2018-09-23T03:07:39.153Z,5.33
2018-09-23T03:10:08.219Z,3.90
2018-09-23T03:12:37.278Z,6.87
2018-09-23T03:15:06.223Z,5.08
2018-09-23T03:17:35.263Z,4.62
2018-09-23T03:20:04.537Z,5.08
2018-09-23T03:22:33.470Z,5.03
2018-09-23T03:25:02.562Z,5.58
2018-09-23T03:27:31.594Z,5.78
2018-09-23T03:30:00.569Z,4.70
2018-09-23T03:32:29.610Z,4.47
2018-09-23T03:34:58.585Z,5.20
2018-09-23T03:37:27.593Z,4.50
2018-09-23T03:39:56.598Z,4.00
2018-09-23T03:42:25.764Z,5.25
2018-09-23T03:44:54.742Z,5.28
2018-09-23T03:47:23.706Z,4.60
2018-09-23T03:49:52.762Z,5.17
2018-09-23T03:52:21.767Z,4.75
2018-09-23T03:54:50.604Z,6.03
2018-09-23T03:57:19.634Z,5.00
2018-09-23T03:59:48.638Z,5.13
2018-09-23T04:02:17.662Z,5.70
2018-09-23T04:04:46.697Z,5.90
2018-09-23T04:07:15.654Z,5.95
2018-09-23T04:09:44.681Z,5.47
2018-09-23T04:12:13.607Z,5.62
2018-09-23T04:14:42.586Z,5.65
2018-09-23T04:17:11.570Z,5.35
2018-09-23T04:19:40.598Z,5.53
2018-09-23T04:22:09.520Z,4.62
2018-09-23T04:24:38.597Z,5.37
2018-09-23T04:27:07.581Z,4.50
2018-09-23T04:29:36.638Z,6.50
2018-09-23T04:32:05.602Z,5.00
2018-09-23T04:34:34.737Z,4.58
2018-09-23T04:37:03.750Z,5.93
2018-09-23T04:39:32.711Z,4.83
2018-09-23T04:42:01.958Z,5.15
2018-09-23T04:44:30.886Z,5.22
2018-09-23T04:46:59.651Z,4.67
2018-09-23T04:49:28.530Z,4.78
2018-09-23T04:51:57.562Z,5.22
2018-09-23T04:54:26.393Z,4.25
2018-09-23T04:56:55.385Z,5.17
2018-09-23T04:59:24.358Z,5.58
2018-09-23T05:01:53.378Z,5.22
2018-09-23T05:04:22.461Z,5.00
2018-09-23T05:06:51.409Z,5.67
2018-09-23T05:09:20.497Z,5.78
2018-09-23T05:11:49.506Z,4.97
2018-09-23T05:14:18.373Z,6.70
2018-09-23T05:16:47.486Z,6.08
2018-09-23T05:19:16.687Z,4.42
2018-09-23T05:21:45.889Z,5.33
2018-09-23T05:24:14.938Z,5.75
2018-09-23T05:26:43.906Z,5.60
2018-09-23T05:29:12.853Z,4.62
2018-09-23T05:31:41.822Z,5.10
2018-09-23T05:34:10.858Z,5.20
2018-09-23T05:36:39.950Z,5.27
2018-09-23T05:39:10.149Z,4.45
2018-09-23T05:41:39.194Z,5.12
2018-09-23T05:44:08.706Z,5.65
2018-09-23T05:46:37.675Z,5.22
2018-09-23T05:49:06.898Z,4.83
2018-09-23T05:51:35.820Z,5.15
2018-09-23T05:54:04.750Z,4.62
2018-09-23T05:56:33.749Z,4.33
2018-09-23T05:59:02.750Z,4.70
2018-09-23T06:01:31.729Z,5.05
2018-09-23T06:04:00.753Z,4.87
2018-09-23T06:06:29.637Z,4.20
2018-09-23T06:08:58.646Z,6.17
2018-09-23T06:11:27.711Z,4.65
2018-09-23T06:13:56.722Z,5.33
2018-09-23T06:16:25.770Z,5.20
2018-09-23T06:18:54.803Z,6.87
2018-09-23T06:21:23.782Z,6.95
2018-09-23T06:23:52.715Z,6.03
2018-09-23T06:26:21.788Z,5.67
2018-09-23T06:28:50.833Z,5.67
2018-09-23T06:31:19.809Z,5.65
2018-09-23T06:33:48.926Z,5.37
2018-09-23T06:36:17.995Z,5.72
2018-09-23T06:38:46.962Z,5.40
2018-09-23T06:41:15.962Z,5.25
2018-09-23T06:43:45.262Z,5.78
2018-09-23T06:46:14.267Z,5.15
2018-09-23T06:48:43.335Z,4.42
2018-09-23T06:51:12.424Z,4.95
2018-09-23T06:53:41.445Z,4.62
2018-09-23T06:56:10.399Z,5.10
2018-09-23T06:58:39.265Z,6.13
2018-09-23T07:01:08.306Z,6.07
2018-09-23T07:03:37.269Z,5.03
2018-09-23T07:06:06.263Z,4.53
2018-09-23T07:08:35.190Z,5.17
2018-09-23T07:11:04.337Z,4.58
2018-09-23T07:13:33.292Z,5.42
2018-09-23T07:16:02.833Z,6.33
2018-09-23T07:18:31.717Z,5.42
2018-09-23T07:21:00.654Z,6.33
2018-09-23T07:23:29.859Z,7.53
2018-09-23T07:25:58.935Z,5.33
2018-09-23T07:28:27.890Z,6.23
2018-09-23T07:30:56.812Z,6.10
2018-09-23T07:33:25.753Z,5.10
2018-09-23T07:35:54.802Z,5.50
2018-09-23T07:38:23.770Z,6.62
2018-09-23T07:40:52.794Z,6.80
2018-09-23T07:43:21.866Z,6.85
2018-09-23T07:45:51.041Z,5.00
2018-09-23T07:48:19.890Z,5.67
2018-09-23T07:50:48.817Z,5.70
2018-09-23T07:53:17.781Z,7.15
2018-09-23T07:55:46.918Z,5.95
2018-09-23T07:58:15.951Z,6.17
2018-09-23T08:00:45.005Z,6.05
2018-09-23T08:03:14.081Z,6.43
2018-09-23T08:05:42.914Z,7.47
2018-09-23T08:08:11.952Z,5.12
2018-09-23T08:10:40.953Z,6.17
2018-09-23T08:13:10.106Z,4.67
2018-09-23T08:15:39.110Z,5.75
2018-09-23T08:18:08.110Z,7.85
2018-09-23T08:20:37.260Z,6.50
2018-09-23T08:23:06.875Z,6.55
2018-09-23T08:25:35.736Z,5.60
2018-09-23T08:28:04.639Z,6.37
2018-09-23T08:30:33.501Z,5.45
2018-09-23T08:33:02.454Z,7.05
2018-09-23T08:35:31.408Z,6.17
2018-09-23T08:38:00.490Z,5.60
2018-09-23T08:40:29.699Z,6.60
2018-09-23T08:42:58.995Z,6.23
2018-09-23T08:45:27.829Z,5.42
2018-09-23T08:47:56.919Z,5.92
2018-09-23T08:50:25.806Z,6.95
2018-09-23T08:52:54.739Z,5.37
2018-09-23T08:55:23.827Z,5.65
2018-09-23T08:57:52.797Z,6.90
2018-09-23T09:00:21.799Z,6.07
2018-09-23T09:02:51.758Z,6.30
2018-09-23T09:05:20.831Z,6.25
2018-09-23T09:07:49.774Z,5.67
2018-09-23T09:10:18.757Z,5.37
2018-09-23T09:12:47.727Z,5.40
2018-09-23T09:15:16.871Z,5.62
2018-09-23T09:17:45.870Z,7.42
2018-09-23T09:20:15.008Z,6.75
2018-09-23T09:22:46.505Z,7.17
2018-09-23T09:25:15.544Z,6.75
2018-09-23T09:27:44.495Z,6.53
2018-09-23T09:30:13.634Z,6.12
2018-09-23T09:32:42.494Z,7.35
2018-09-23T09:35:11.559Z,6.37
2018-09-23T09:37:40.520Z,6.27
2018-09-23T09:40:09.473Z,5.87
2018-09-23T09:42:38.314Z,5.47
2018-09-23T09:45:07.371Z,4.97
2018-09-23T09:47:36.230Z,5.25
2018-09-23T09:50:05.366Z,4.65
2018-09-23T09:52:34.251Z,5.87
2018-09-23T09:55:03.279Z,6.33
2018-09-23T09:57:32.266Z,5.87
2018-09-23T10:00:01.167Z,5.50
2018-09-23T10:02:30.197Z,6.57
2018-09-23T10:04:59.510Z,5.97
2018-09-23T10:07:28.666Z,4.92
2018-09-23T10:09:57.629Z,4.97
2018-09-23T10:12:26.609Z,6.10
2018-09-23T10:14:55.606Z,6.17
2018-09-23T10:17:24.567Z,6.75
2018-09-23T10:19:53.510Z,5.20
2018-09-23T10:22:22.601Z,5.45
2018-09-23T10:24:51.750Z,6.62
2018-09-23T10:27:20.793Z,5.55
2018-09-23T10:29:49.891Z,5.03
2018-09-23T10:32:18.965Z,5.58
2018-09-23T10:34:47.987Z,6.22
2018-09-23T10:37:17.129Z,5.90
2018-09-23T10:39:46.154Z,6.43
2018-09-23T10:42:15.104Z,7.97
2018-09-23T10:44:44.167Z,7.83
2018-09-23T10:47:13.258Z,9.60
2018-09-23T10:49:42.461Z,12.88
2018-09-23T10:52:11.438Z,12.25
2018-09-23T10:54:40.514Z,12.70
2018-09-23T10:57:09.435Z,8.70
2018-09-23T10:59:38.384Z,11.43
2018-09-23T11:02:07.448Z,8.18
2018-09-23T11:04:36.409Z,8.73
2018-09-23T11:07:05.362Z,8.15
2018-09-23T11:09:34.226Z,7.72
2018-09-23T11:12:03.274Z,8.08
2018-09-23T11:14:32.250Z,7.03
2018-09-23T11:17:01.245Z,7.37
2018-09-23T11:19:30.277Z,6.80
2018-09-23T11:21:59.210Z,6.92
2018-09-23T11:24:28.185Z,5.87
2018-09-23T11:26:57.306Z,6.95
2018-09-23T11:29:26.330Z,6.17
2018-09-23T11:31:55.294Z,6.00
2018-09-23T11:34:24.338Z,6.10
2018-09-23T11:36:53.486Z,5.87
2018-09-23T11:39:22.534Z,6.72
2018-09-23T11:41:51.506Z,7.40
2018-09-23T11:44:20.550Z,6.17
2018-09-23T11:46:49.497Z,6.95
2018-09-23T11:49:18.374Z,7.10
2018-09-23T11:51:47.318Z,6.10
2018-09-23T11:54:16.554Z,7.05
2018-09-23T11:56:45.530Z,7.25
2018-09-23T11:59:14.568Z,6.10
2018-09-23T12:01:43.553Z,7.25
2018-09-23T12:04:12.466Z,6.75
2018-09-23T12:06:41.369Z,7.33
2018-09-23T12:09:11.886Z,5.90
2018-09-23T12:11:41.102Z,6.78
2018-09-23T12:14:10.479Z,6.70
2018-09-23T12:16:39.403Z,6.53
2018-09-23T12:19:08.458Z,6.30
2018-09-23T12:21:37.412Z,6.40
2018-09-23T12:24:06.418Z,7.42
2018-09-23T12:26:35.478Z,7.37
2018-09-23T12:29:04.442Z,7.05
2018-09-23T12:31:33.466Z,7.28
2018-09-23T12:34:02.442Z,7.37
2018-09-23T12:36:31.463Z,8.05
2018-09-23T12:39:00.461Z,8.70
2018-09-23T12:41:29.489Z,8.43
2018-09-23T12:43:58.363Z,6.40
2018-09-23T12:46:27.498Z,7.85
2018-09-23T12:48:56.606Z,6.85
2018-09-23T12:51:25.614Z,7.13
2018-09-23T12:53:54.539Z,7.10
2018-09-23T12:56:23.526Z,7.60
2018-09-23T12:58:52.401Z,8.68
2018-09-23T13:01:21.563Z,7.55
2018-09-23T13:03:50.530Z,7.92
2018-09-23T13:06:19.592Z,7.77
2018-09-23T13:08:48.632Z,7.22
2018-09-23T13:11:17.665Z,7.53
2018-09-23T13:13:46.682Z,7.65
2018-09-23T13:16:15.583Z,7.67
2018-09-23T13:18:44.544Z,7.40
2018-09-23T13:21:13.473Z,6.85
2018-09-23T13:23:42.442Z,7.83
2018-09-23T13:26:11.467Z,7.10
2018-09-23T13:28:40.341Z,6.37
2018-09-23T13:31:09.366Z,7.15
2018-09-23T13:33:38.499Z,7.93
2018-09-23T13:36:07.474Z,7.62
2018-09-23T13:38:36.506Z,7.37
2018-09-23T13:41:05.528Z,7.08
2018-09-23T13:43:34.641Z,7.40
2018-09-23T13:46:03.610Z,7.15
2018-09-23T13:48:32.522Z,6.95
2018-09-23T13:51:01.498Z,6.10
2018-09-23T13:53:30.551Z,6.78
2018-09-23T13:55:59.518Z,7.37
2018-09-23T13:58:28.557Z,6.87
2018-09-23T14:00:57.523Z,7.58
2018-09-23T14:03:26.459Z,6.80
2018-09-23T14:05:55.425Z,6.85
2018-09-23T14:08:24.429Z,8.03
2018-09-23T14:10:53.350Z,7.92
2018-09-23T14:13:22.296Z,6.83
2018-09-23T14:15:51.406Z,6.28
2018-09-23T14:18:20.382Z,8.33
2018-09-23T14:20:49.462Z,7.80
2018-09-23T14:23:18.522Z,8.00
2018-09-23T14:25:47.489Z,7.72
2018-09-23T14:28:16.634Z,8.00
2018-09-23T14:30:45.711Z,9.53
2018-09-23T14:33:14.606Z,9.33
2018-09-23T14:35:43.701Z,8.43
2018-09-23T14:38:12.789Z,6.05
2018-09-23T14:40:41.742Z,7.75
2018-09-23T14:43:10.701Z,6.90
2018-09-23T14:45:39.757Z,8.18
2018-09-23T14:48:09.058Z,8.05
2018-09-23T14:50:38.085Z,6.83
2018-09-23T14:53:07.251Z,8.00
2018-09-23T14:55:36.562Z,7.72
2018-09-23T14:58:05.677Z,7.58
2018-09-23T15:00:34.804Z,8.58
2018-09-23T15:03:03.902Z,8.13
2018-09-23T15:05:32.937Z,9.00
2018-09-23T15:08:01.910Z,7.85
2018-09-23T15:10:31.069Z,6.53
2018-09-23T15:13:00.123Z,7.20
2018-09-23T15:15:29.158Z,8.80
2018-09-23T15:17:58.038Z,8.73
2018-09-23T15:20:27.091Z,8.25
2018-09-23T15:22:55.990Z,8.58
2018-09-23T15:25:24.992Z,7.25
2018-09-23T15:27:53.949Z,7.97
2018-09-23T15:30:23.042Z,8.35
2018-09-23T15:32:52.127Z,8.20
2018-09-23T15:35:21.076Z,6.92
2018-09-23T15:37:50.086Z,9.07
2018-09-23T15:40:19.069Z,8.25
2018-09-23T15:42:48.110Z,7.70
2018-09-23T15:45:17.078Z,7.35
2018-09-23T15:47:46.236Z,8.97
2018-09-23T15:50:15.142Z,7.67
2018-09-23T15:52:45.014Z,8.20
2018-09-23T15:55:14.229Z,7.45
2018-09-23T15:57:43.474Z,7.30
2018-09-23T16:00:12.446Z,6.95
2018-09-23T16:02:41.625Z,6.45
2018-09-23T16:05:10.530Z,7.27
2018-09-23T16:07:39.541Z,6.80
2018-09-23T16:10:08.465Z,7.03
2018-09-23T16:12:37.502Z,7.53
2018-09-23T16:15:06.665Z,5.92
2018-09-23T16:17:35.881Z,7.15
2018-09-23T16:20:04.981Z,7.42
2018-09-23T16:22:33.953Z,7.83
2018-09-23T16:25:03.016Z,7.33
2018-09-23T16:27:32.042Z,7.62
2018-09-23T16:30:00.969Z,7.60
2018-09-23T16:32:29.954Z,6.15
2018-09-23T16:34:58.925Z,7.63
2018-09-23T16:37:27.865Z,7.35
2018-09-23T16:39:56.826Z,8.35
2018-09-23T16:42:25.789Z,7.95
2018-09-23T16:44:54.789Z,7.05
2018-09-23T16:47:23.750Z,6.83
2018-09-23T16:49:52.790Z,7.33
2018-09-23T16:52:21.795Z,6.78
2018-09-23T16:54:50.903Z,6.10
2018-09-23T16:57:19.889Z,6.25
2018-09-23T16:59:48.910Z,6.25
2018-09-23T17:02:17.874Z,7.47
2018-09-23T17:04:46.859Z,6.45
2018-09-23T17:07:15.950Z,6.22
2018-09-23T17:09:44.822Z,5.20
2018-09-23T17:12:13.782Z,5.95
2018-09-23T17:14:42.725Z,6.42
2018-09-23T17:17:11.652Z,6.37
2018-09-23T17:19:40.666Z,5.90
2018-09-23T17:22:10.089Z,6.58
2018-09-23T17:24:39.098Z,6.25
2018-09-23T17:27:08.122Z,6.33
2018-09-23T17:29:37.350Z,6.13
2018-09-23T17:32:06.489Z,5.80
2018-09-23T17:34:35.616Z,5.92
2018-09-23T17:37:04.513Z,6.40
2018-09-23T17:39:33.497Z,6.03
2018-09-23T17:42:02.494Z,6.28
2018-09-23T17:44:31.405Z,5.50
2018-09-23T17:47:00.598Z,6.62
2018-09-23T17:49:29.613Z,7.67
2018-09-23T17:51:58.605Z,7.95
2018-09-23T17:54:27.674Z,6.00
2018-09-23T17:56:56.510Z,7.50
2018-09-23T17:59:25.620Z,5.25
2018-09-23T18:01:54.893Z,6.40
2018-09-23T18:04:23.950Z,6.42
2018-09-23T18:06:53.111Z,7.28
2018-09-23T18:09:22.152Z,6.55
2018-09-23T18:11:51.177Z,6.90
2018-09-23T18:14:20.466Z,6.08
2018-09-23T18:16:49.622Z,5.83
2018-09-23T18:19:18.613Z,6.08
2018-09-23T18:21:47.898Z,5.90
2018-09-23T18:24:16.796Z,6.40
2018-09-23T18:26:46.002Z,6.58
2018-09-23T18:29:15.350Z,5.80
2018-09-23T18:31:44.403Z,6.53
2018-09-23T18:34:13.349Z,6.53
2018-09-23T18:36:42.690Z,5.72
2018-09-23T18:39:11.766Z,5.62
2018-09-23T18:41:40.904Z,7.10
2018-09-23T18:44:09.890Z,5.67
2018-09-23T18:46:38.888Z,6.78
2018-09-23T18:49:07.983Z,6.25
2018-09-23T18:51:37.025Z,5.80
2018-09-23T18:54:11.065Z,5.57
2018-09-23T18:56:40.193Z,6.80
2018-09-23T18:59:09.222Z,6.42
2018-09-23T19:01:38.338Z,6.40
2018-09-23T19:04:07.391Z,6.23
2018-09-23T19:06:36.466Z,5.65
2018-09-23T19:09:07.625Z,6.62
2018-09-23T19:11:36.946Z,6.28
2018-09-23T19:14:05.809Z,6.20
2018-09-23T19:16:35.426Z,5.42
2018-09-23T19:19:04.573Z,6.03
2018-09-23T19:21:33.566Z,5.87
2018-09-23T19:24:02.597Z,5.62
2018-09-23T19:26:31.574Z,5.45
2018-09-23T19:29:00.595Z,5.60
2018-09-23T19:31:29.569Z,6.42
2018-09-23T19:33:58.554Z,6.45
2018-09-23T19:36:27.682Z,6.33
2018-09-23T19:38:56.623Z,6.75
2018-09-23T19:41:25.590Z,5.72
2018-09-23T19:43:54.619Z,6.62
2018-09-23T19:46:23.426Z,6.12
2018-09-23T19:48:52.459Z,5.85
2018-09-23T19:51:21.426Z,5.10
2018-09-23T19:53:50.468Z,5.65
2018-09-23T19:56:19.415Z,6.00
2018-09-23T19:58:48.445Z,5.72
2018-09-23T20:01:17.276Z,5.78
2018-09-23T20:03:46.375Z,6.12
2018-09-23T20:06:15.333Z,5.58
2018-09-23T20:08:44.450Z,6.35
2018-09-23T20:11:13.499Z,5.30
2018-09-23T20:13:42.469Z,6.00
2018-09-23T20:16:11.471Z,6.00
2018-09-23T20:18:40.436Z,5.67
2018-09-23T20:21:09.514Z,6.42
2018-09-23T20:23:38.796Z,5.30
2018-09-23T20:26:08.137Z,5.35
2018-09-23T20:28:37.335Z,6.00
2018-09-23T20:31:06.658Z,6.10
2018-09-23T20:33:36.018Z,5.72
2018-09-23T20:36:05.144Z,5.62
2018-09-23T20:38:34.130Z,5.17
2018-09-23T20:41:03.167Z,6.33
2018-09-23T20:43:32.151Z,5.35
2018-09-23T20:46:01.186Z,5.30
2018-09-23T20:48:30.058Z,6.55
2018-09-23T20:50:59.052Z,6.87
2018-09-23T20:53:28.064Z,6.10
2018-09-23T20:55:57.209Z,5.83
2018-09-23T20:58:26.277Z,5.33
2018-09-23T21:00:55.271Z,6.22
2018-09-23T21:03:24.290Z,5.45
2018-09-23T21:05:53.343Z,6.55
2018-09-23T21:08:22.316Z,5.40
2018-09-23T21:10:51.526Z,5.83
2018-09-23T21:13:20.657Z,5.40
2018-09-23T21:15:49.534Z,5.70
2018-09-23T21:18:18.557Z,6.27
2018-09-23T21:20:47.637Z,5.95
2018-09-23T21:23:16.694Z,5.08
2018-09-23T21:25:45.655Z,6.80
2018-09-23T21:28:14.807Z,7.40
2018-09-23T21:30:43.854Z,5.53
2018-09-23T21:33:12.918Z,6.47
2018-09-23T21:35:42.060Z,5.95
2018-09-23T21:38:11.541Z,6.75
2018-09-23T21:40:40.870Z,6.22
2018-09-23T21:43:09.768Z,6.47
2018-09-23T21:45:38.748Z,6.30
2018-09-23T21:48:07.752Z,6.28
2018-09-23T21:50:36.642Z,5.83
2018-09-23T21:53:05.767Z,5.25
2018-09-23T21:55:34.633Z,6.62
2018-09-23T21:58:03.658Z,6.45
2018-09-23T22:00:37.742Z,6.78
2018-09-23T22:03:07.018Z,6.58
2018-09-23T22:05:35.894Z,6.65
2018-09-23T22:08:05.235Z,5.95
2018-09-23T22:10:34.275Z,7.08
2018-09-23T22:13:03.194Z,6.37
2018-09-23T22:15:32.090Z,6.67
2018-09-23T22:18:01.241Z,6.55
2018-09-23T22:20:30.311Z,6.25
2018-09-23T22:22:59.457Z,6.37
2018-09-23T22:25:28.430Z,6.42
2018-09-23T22:27:57.425Z,5.30
2018-09-23T22:30:26.470Z,6.22
2018-09-23T22:32:55.454Z,6.37
2018-09-23T22:35:24.290Z,6.40
2018-09-23T22:37:53.242Z,6.37
2018-09-23T22:40:22.196Z,6.60
2018-09-23T22:42:51.154Z,5.62
2018-09-23T22:45:20.206Z,6.95
2018-09-23T22:47:49.166Z,5.83
2018-09-23T22:50:18.306Z,5.70
2018-09-23T22:52:47.390Z,6.25
2018-09-23T22:55:16.446Z,6.35
2018-09-23T22:57:45.401Z,7.28
2018-09-23T23:00:14.442Z,6.20
2018-09-23T23:02:43.306Z,6.85
2018-09-23T23:05:12.300Z,6.30
2018-09-23T23:07:41.345Z,6.25
2018-09-23T23:10:10.351Z,6.25
2018-09-23T23:12:39.344Z,6.10
2018-09-23T23:15:08.719Z,6.17
2018-09-23T23:17:37.682Z,6.95
2018-09-23T23:20:07.324Z,6.65
2018-09-23T23:22:36.438Z,6.17
2018-09-23T23:25:05.356Z,5.87
2018-09-23T23:27:34.359Z,5.28
2018-09-23T23:30:03.284Z,6.28
2018-09-23T23:32:32.473Z,6.55
2018-09-23T23:35:01.406Z,6.67
2018-09-23T23:37:30.339Z,5.95
2018-09-23T23:39:59.298Z,5.80
2018-09-23T23:42:28.243Z,6.47
2018-09-23T23:44:57.208Z,6.22
2018-09-23T23:47:26.254Z,5.80
2018-09-23T23:49:55.330Z,6.03
2018-09-23T23:52:24.724Z,6.67
2018-09-23T23:54:53.656Z,7.53
2018-09-23T23:57:22.637Z,6.73
2018-09-23T23:59:51.633Z,7.35
